Emu Arrow — C6OR4 — position and weather

sailwx.info

Track history (hours):
 
Tides and Currents Weather Stations Pressure Air Temp Water Temp Dewpoint Dewpoint Depression Visibility Wind Speed Wind Dir Waves Ship Positions

Emu Arrow

Last reported at 2014-Nov-11 02:29 UTC. Time now 2014-Nov-26 07:51 UTC.
Position N 35°03' E 139°37'.
Warning: this ship's position is 15 days out of date.

Length 200 m; draft 8.6 m.

Type: Cargo ship. MMSI: 309805000.

Date/timePositionNaut miles runAvg speedWind from/ knotsBaromVisibWave heightAir tempDewpointWater temp
2014-Nov-11 02:29N 35°03' E 139°37'1111.6
2014-Nov-11 01:33N 35°11' E 139°46'1212.0
2014-Nov-11 00:33N 35°23' E 139°42'5 5.2
2014-Nov-10 23:31N 35°28' E 139°42'0 0.0
2014-Nov-10 22:31N 35°28' E 139°42'0 0.0
2014-Nov-10 21:31N 35°28' E 139°42'0 0.0
2014-Nov-10 20:31N 35°28' E 139°42'0 0.0
2014-Nov-10 19:28N 35°28' E 139°42'0 0.0
2014-Nov-10 18:31N 35°28' E 139°42'0 0.0
2014-Nov-10 17:31N 35°28' E 139°42'0 0.0
2014-Nov-10 16:31N 35°28' E 139°42'0 0.0
2014-Nov-10 15:31N 35°28' E 139°42'0 0.0
2014-Nov-10 14:31N 35°28' E 139°42'0 0.0
2014-Nov-10 13:31N 35°28' E 139°42'0 0.0
2014-Nov-10 12:31N 35°28' E 139°42'0 0.0
2014-Nov-10 11:31N 35°28' E 139°42'0 0.0
2014-Nov-10 10:31N 35°28' E 139°42'0 0.0
2014-Nov-10 09:31N 35°28' E 139°42'0 0.0
2014-Nov-10 08:31N 35°28' E 139°42'0 0.0
2014-Nov-10 07:31N 35°28' E 139°42'0 0.0
2014-Nov-10 06:31N 35°28' E 139°42'0 0.0
2014-Nov-10 05:31N 35°28' E 139°42'0 0.0
2014-Nov-10 04:31N 35°28' E 139°42'0 0.0
2014-Nov-10 03:31N 35°28' E 139°42'0 0.0
2014-Nov-10 02:31N 35°28' E 139°42'0 0.0
2014-Nov-10 01:31N 35°28' E 139°42'0 0.0
2014-Nov-10 00:31N 35°28' E 139°42'0 0.0
2014-Nov-09 23:31N 35°28' E 139°42'0 0.4
2014-Nov-09 22:33N 35°28' E 139°42'7 7.1
2014-Nov-09 21:33N 35°21' E 139°45'1010.0
2014-Nov-09 20:33N 35°11' E 139°47'7 6.7
2014-Nov-09 19:32N 35°05' E 139°43'12 9.4
2014-Nov-09 18:13N 34°57' E 139°31'  
2014-Nov-04 14:07N 24°39' E 119°16'6 8.9
2014-Nov-04 13:29N 24°36' E 119°11'38 9.3
2014-Nov-04 09:23N 24°18' E 118°34'810.2
2014-Nov-04 08:33N 24°14' E 118°26'10 9.5
2014-Nov-04 07:33N 24°15' E 118°15'1110.9
2014-Nov-04 06:33N 24°23' E 118°07'9 8.9
2014-Nov-04 05:33N 24°32' E 118°05'1 0.4
2014-Nov-04 02:16N 24°33' E 118°05'0 0.0
2014-Nov-04 01:10N 24°33' E 118°05'0 0.0
2014-Nov-03 22:04N 24°33' E 118°05'0 0.0
2014-Nov-03 21:16N 24°33' E 118°05'0 0.0
2014-Nov-03 20:10N 24°33' E 118°05'0 0.0
2014-Nov-03 19:28N 24°33' E 118°05'0 0.0
2014-Nov-03 18:46N 24°33' E 118°05'0 0.0
2014-Nov-03 18:22N 24°33' E 118°05'0 0.0
2014-Nov-03 17:34N 24°33' E 118°05'0 0.0
2014-Nov-03 17:28N 24°33' E 118°05'0 0.0
2014-Nov-03 11:16N 24°33' E 118°05'0 0.0
2014-Nov-03 09:16N 24°33' E 118°05'0 0.0
2014-Nov-03 07:22N 24°33' E 118°05'0 0.0
2014-Nov-03 03:16N 24°33' E 118°05'0 0.0
2014-Nov-03 01:11N 24°33' E 118°05'0 0.0
2014-Nov-02 23:29N 24°33' E 118°05'0 0.0
2014-Nov-02 22:11N 24°33' E 118°05'0 0.0
2014-Nov-02 21:11N 24°33' E 118°05'0 0.0
2014-Nov-02 19:17N 24°33' E 118°05'0 0.0
2014-Nov-02 18:29N 24°33' E 118°05'0 0.0
2014-Nov-02 17:29N 24°33' E 118°05'0 0.0
2014-Nov-02 16:23N 24°33' E 118°05'0 0.0
2014-Nov-02 15:17N 24°33' E 118°05'0 0.0
2014-Nov-02 14:05N 24°33' E 118°05'0 0.0
2014-Nov-02 13:23N 24°33' E 118°05'0 0.0
2014-Nov-02 12:17N 24°33' E 118°05'0 0.0
2014-Nov-02 11:11N 24°33' E 118°05'0 0.0
2014-Nov-02 10:11N 24°33' E 118°05'0 0.0
2014-Nov-02 09:11N 24°33' E 118°05'0 0.0
2014-Nov-02 08:23N 24°33' E 118°05'0 0.0
2014-Nov-02 07:17N 24°33' E 118°05'0 0.0
2014-Nov-02 06:11N 24°33' E 118°05'0 0.0
2014-Nov-02 04:29N 24°33' E 118°05'0 0.0
2014-Nov-02 03:11N 24°33' E 118°05'0 0.0
2014-Nov-02 01:12N 24°33' E 118°05'0 0.0
2014-Nov-02 00:23N 24°33' E 118°05'0 0.1
2014-Nov-01 23:32N 24°33' E 118°05'7 7.6
2014-Nov-01 22:33N 24°25' E 118°05'8 8.0
2014-Nov-01 21:33N 24°20' E 118°11'4 4.4
2014-Nov-01 20:33N 24°16' E 118°14'6 5.5
2014-Nov-01 19:33N 24°13' E 118°18'8 8.5
2014-Nov-01 18:33N 24°09' E 118°27'5 5.1
2014-Nov-01 17:33N 24°04' E 118°29'9 9.3
2014-Nov-01 16:33N 23°55' E 118°33'21 7.0
2014-Nov-01 13:32N 23°35' E 118°39'11 8.1
2014-Nov-01 12:14N 23°30' E 118°49'44 9.4
2014-Nov-01 07:33N 22°55' E 119°19'  
Track history (hours):
 
Tides and Currents Weather Stations Pressure Air Temp Water Temp Dewpoint Dewpoint Depression Visibility Wind Speed Wind Dir Waves Ship Positions

Emu Arrow

Last reported at 2014-Nov-11 02:29 UTC. Time now 2014-Nov-26 07:51 UTC.
Position N 35°03' E 139°37'.
Warning: this ship's position is 15 days out of date.

Length 200 m; draft 8.6 m.

Type: Cargo ship. MMSI: 309805000.

Date/timePositionNaut miles runAvg speedWind from/ knotsBaromVisibWave heightAir tempDewpointWater temp
2014-Nov-11 02:29N 35°03' E 139°37'1111.6
2014-Nov-11 01:33N 35°11' E 139°46'1212.0
2014-Nov-11 00:33N 35°23' E 139°42'5 5.2
2014-Nov-10 23:31N 35°28' E 139°42'0 0.0
2014-Nov-10 22:31N 35°28' E 139°42'0 0.0
2014-Nov-10 21:31N 35°28' E 139°42'0 0.0
2014-Nov-10 20:31N 35°28' E 139°42'0 0.0
2014-Nov-10 19:28N 35°28' E 139°42'0 0.0
2014-Nov-10 18:31N 35°28' E 139°42'0 0.0
2014-Nov-10 17:31N 35°28' E 139°42'0 0.0
2014-Nov-10 16:31N 35°28' E 139°42'0 0.0
2014-Nov-10 15:31N 35°28' E 139°42'0 0.0
2014-Nov-10 14:31N 35°28' E 139°42'0 0.0
2014-Nov-10 13:31N 35°28' E 139°42'0 0.0
2014-Nov-10 12:31N 35°28' E 139°42'0 0.0
2014-Nov-10 11:31N 35°28' E 139°42'0 0.0
2014-Nov-10 10:31N 35°28' E 139°42'0 0.0
2014-Nov-10 09:31N 35°28' E 139°42'0 0.0
2014-Nov-10 08:31N 35°28' E 139°42'0 0.0
2014-Nov-10 07:31N 35°28' E 139°42'0 0.0
2014-Nov-10 06:31N 35°28' E 139°42'0 0.0
2014-Nov-10 05:31N 35°28' E 139°42'0 0.0
2014-Nov-10 04:31N 35°28' E 139°42'0 0.0
2014-Nov-10 03:31N 35°28' E 139°42'0 0.0
2014-Nov-10 02:31N 35°28' E 139°42'0 0.0
2014-Nov-10 01:31N 35°28' E 139°42'0 0.0
2014-Nov-10 00:31N 35°28' E 139°42'0 0.0
2014-Nov-09 23:31N 35°28' E 139°42'0 0.4
2014-Nov-09 22:33N 35°28' E 139°42'7 7.1
2014-Nov-09 21:33N 35°21' E 139°45'1010.0
2014-Nov-09 20:33N 35°11' E 139°47'7 6.7
2014-Nov-09 19:32N 35°05' E 139°43'12 9.4
2014-Nov-09 18:13N 34°57' E 139°31'  
2014-Nov-04 14:07N 24°39' E 119°16'6 8.9
2014-Nov-04 13:29N 24°36' E 119°11'38 9.3
2014-Nov-04 09:23N 24°18' E 118°34'810.2
2014-Nov-04 08:33N 24°14' E 118°26'10 9.5
2014-Nov-04 07:33N 24°15' E 118°15'1110.9
2014-Nov-04 06:33N 24°23' E 118°07'9 8.9
2014-Nov-04 05:33N 24°32' E 118°05'1 0.4
2014-Nov-04 02:16N 24°33' E 118°05'0 0.0
2014-Nov-04 01:10N 24°33' E 118°05'0 0.0
2014-Nov-03 22:04N 24°33' E 118°05'0 0.0
2014-Nov-03 21:16N 24°33' E 118°05'0 0.0
2014-Nov-03 20:10N 24°33' E 118°05'0 0.0
2014-Nov-03 19:28N 24°33' E 118°05'0 0.0
2014-Nov-03 18:46N 24°33' E 118°05'0 0.0
2014-Nov-03 18:22N 24°33' E 118°05'0 0.0
2014-Nov-03 17:34N 24°33' E 118°05'0 0.0
2014-Nov-03 17:28N 24°33' E 118°05'0 0.0
2014-Nov-03 11:16N 24°33' E 118°05'0 0.0
2014-Nov-03 09:16N 24°33' E 118°05'0 0.0
2014-Nov-03 07:22N 24°33' E 118°05'0 0.0
2014-Nov-03 03:16N 24°33' E 118°05'0 0.0
2014-Nov-03 01:11N 24°33' E 118°05'0 0.0
2014-Nov-02 23:29N 24°33' E 118°05'0 0.0
2014-Nov-02 22:11N 24°33' E 118°05'0 0.0
2014-Nov-02 21:11N 24°33' E 118°05'0 0.0
2014-Nov-02 19:17N 24°33' E 118°05'0 0.0
2014-Nov-02 18:29N 24°33' E 118°05'0 0.0
2014-Nov-02 17:29N 24°33' E 118°05'0 0.0
2014-Nov-02 16:23N 24°33' E 118°05'0 0.0
2014-Nov-02 15:17N 24°33' E 118°05'0 0.0
2014-Nov-02 14:05N 24°33' E 118°05'0 0.0
2014-Nov-02 13:23N 24°33' E 118°05'0 0.0
2014-Nov-02 12:17N 24°33' E 118°05'0 0.0
2014-Nov-02 11:11N 24°33' E 118°05'0 0.0
2014-Nov-02 10:11N 24°33' E 118°05'0 0.0
2014-Nov-02 09:11N 24°33' E 118°05'0 0.0
2014-Nov-02 08:23N 24°33' E 118°05'0 0.0
2014-Nov-02 07:17N 24°33' E 118°05'0 0.0
2014-Nov-02 06:11N 24°33' E 118°05'0 0.0
2014-Nov-02 04:29N 24°33' E 118°05'0 0.0
2014-Nov-02 03:11N 24°33' E 118°05'0 0.0
2014-Nov-02 01:12N 24°33' E 118°05'0 0.0
2014-Nov-02 00:23N 24°33' E 118°05'0 0.1
2014-Nov-01 23:32N 24°33' E 118°05'7 7.6
2014-Nov-01 22:33N 24°25' E 118°05'8 8.0
2014-Nov-01 21:33N 24°20' E 118°11'4 4.4
2014-Nov-01 20:33N 24°16' E 118°14'6 5.5
2014-Nov-01 19:33N 24°13' E 118°18'8 8.5
2014-Nov-01 18:33N 24°09' E 118°27'5 5.1
2014-Nov-01 17:33N 24°04' E 118°29'9 9.3
2014-Nov-01 16:33N 23°55' E 118°33'21 7.0
2014-Nov-01 13:32N 23°35' E 118°39'11 8.1
2014-Nov-01 12:14N 23°30' E 118°49'44 9.4
2014-Nov-01 07:33N 22°55' E 119°19'  

Dump ship's entire track history